sensor_id;sensor_type;location;lat;lon;timestamp;temperature;humidity
975;DHT22;6115;49.296;10.602;2023-07-24T00:01:45;19.20;50.80
975;DHT22;6115;49.296;10.602;2023-07-24T00:06:45;19.20;53.00
975;DHT22;6115;49.296;10.602;2023-07-24T00:11:46;19.10;55.20
975;DHT22;6115;49.296;10.602;2023-07-24T00:16:46;18.90;58.10
975;DHT22;6115;49.296;10.602;2023-07-24T00:21:47;18.70;58.00
975;DHT22;6115;49.296;10.602;2023-07-24T00:26:47;18.60;59.80
975;DHT22;6115;49.296;10.602;2023-07-24T00:31:48;18.40;62.50
975;DHT22;6115;49.296;10.602;2023-07-24T00:36:48;18.30;65.80
975;DHT22;6115;49.296;10.602;2023-07-24T00:41:49;18.00;69.30
975;DHT22;6115;49.296;10.602;2023-07-24T00:46:49;17.70;69.80
975;DHT22;6115;49.296;10.602;2023-07-24T00:51:50;17.50;71.70
975;DHT22;6115;49.296;10.602;2023-07-24T00:56:52;17.40;72.70
975;DHT22;6115;49.296;10.602;2023-07-24T01:01:52;17.20;74.20
975;DHT22;6115;49.296;10.602;2023-07-24T01:06:53;16.90;76.80
975;DHT22;6115;49.296;10.602;2023-07-24T01:11:58;16.70;77.50
975;DHT22;6115;49.296;10.602;2023-07-24T01:17:00;16.70;77.70
975;DHT22;6115;49.296;10.602;2023-07-24T01:27:24;16.80;80.10
975;DHT22;6115;49.296;10.602;2023-07-24T01:32:25;16.80;80.70
975;DHT22;6115;49.296;10.602;2023-07-24T01:37:26;16.80;81.40
975;DHT22;6115;49.296;10.602;2023-07-24T01:42:28;16.80;81.60
975;DHT22;6115;49.296;10.602;2023-07-24T01:47:28;16.90;81.80
975;DHT22;6115;49.296;10.602;2023-07-24T01:52:30;16.90;82.10
975;DHT22;6115;49.296;10.602;2023-07-24T01:57:30;16.90;82.40
975;DHT22;6115;49.296;10.602;2023-07-24T02:02:31;16.90;82.20
975;DHT22;6115;49.296;10.602;2023-07-24T02:07:31;16.90;81.60
975;DHT22;6115;49.296;10.602;2023-07-24T02:12:32;16.90;81.40
975;DHT22;6115;49.296;10.602;2023-07-24T02:17:32;16.90;81.50
975;DHT22;6115;49.296;10.602;2023-07-24T02:22:33;17.00;82.00
975;DHT22;6115;49.296;10.602;2023-07-24T02:27:34;17.10;81.70
975;DHT22;6115;49.296;10.602;2023-07-24T02:32:34;17.10;81.80
975;DHT22;6115;49.296;10.602;2023-07-24T02:37:35;17.10;82.00
975;DHT22;6115;49.296;10.602;2023-07-24T02:42:35;17.10;81.20
975;DHT22;6115;49.296;10.602;2023-07-24T02:47:36;17.10;81.10
975;DHT22;6115;49.296;10.602;2023-07-24T02:52:37;17.10;81.10
975;DHT22;6115;49.296;10.602;2023-07-24T02:57:38;17.10;81.10
975;DHT22;6115;49.296;10.602;2023-07-24T03:02:39;17.10;81.80
975;DHT22;6115;49.296;10.602;2023-07-24T03:07:40;17.20;82.10
975;DHT22;6115;49.296;10.602;2023-07-24T03:12:40;17.20;82.30
975;DHT22;6115;49.296;10.602;2023-07-24T03:17:41;17.20;82.40
975;DHT22;6115;49.296;10.602;2023-07-24T03:22:42;17.30;82.30
975;DHT22;6115;49.296;10.602;2023-07-24T03:27:42;17.20;82.00
975;DHT22;6115;49.296;10.602;2023-07-24T03:32:43;17.20;82.00
975;DHT22;6115;49.296;10.602;2023-07-24T03:37:43;17.20;81.70
975;DHT22;6115;49.296;10.602;2023-07-24T03:42:44;17.10;81.70
975;DHT22;6115;49.296;10.602;2023-07-24T03:47:44;17.20;81.10
975;DHT22;6115;49.296;10.602;2023-07-24T03:52:45;17.10;80.80
975;DHT22;6115;49.296;10.602;2023-07-24T03:57:45;17.10;80.80
975;DHT22;6115;49.296;10.602;2023-07-24T04:02:47;17.10;81.60
975;DHT22;6115;49.296;10.602;2023-07-24T04:07:47;17.10;81.10
975;DHT22;6115;49.296;10.602;2023-07-24T04:12:48;17.10;81.10
975;DHT22;6115;49.296;10.602;2023-07-24T04:17:48;17.10;81.10
975;DHT22;6115;49.296;10.602;2023-07-24T04:22:49;17.00;81.30
975;DHT22;6115;49.296;10.602;2023-07-24T04:27:49;17.00;81.80
975;DHT22;6115;49.296;10.602;2023-07-24T04:32:50;16.90;82.20
975;DHT22;6115;49.296;10.602;2023-07-24T04:37:50;17.00;82.20
975;DHT22;6115;49.296;10.602;2023-07-24T04:42:51;17.10;81.70
975;DHT22;6115;49.296;10.602;2023-07-24T04:47:52;17.10;81.50
975;DHT22;6115;49.296;10.602;2023-07-24T04:52:52;17.10;81.10
975;DHT22;6115;49.296;10.602;2023-07-24T04:57:53;17.10;80.80
975;DHT22;6115;49.296;10.602;2023-07-24T05:02:53;17.10;79.70
975;DHT22;6115;49.296;10.602;2023-07-24T05:07:54;17.20;78.90
975;DHT22;6115;49.296;10.602;2023-07-24T05:12:54;17.30;79.10
975;DHT22;6115;49.296;10.602;2023-07-24T05:17:56;17.30;79.60
975;DHT22;6115;49.296;10.602;2023-07-24T05:22:57;17.40;79.60
975;DHT22;6115;49.296;10.602;2023-07-24T05:27:58;17.50;79.40
975;DHT22;6115;49.296;10.602;2023-07-24T05:32:58;17.60;78.10
975;DHT22;6115;49.296;10.602;2023-07-24T05:37:59;17.70;77.30
975;DHT22;6115;49.296;10.602;2023-07-24T05:42:59;17.90;77.00
975;DHT22;6115;49.296;10.602;2023-07-24T05:48:00;18.00;77.10
975;DHT22;6115;49.296;10.602;2023-07-24T05:53:00;18.20;76.50
975;DHT22;6115;49.296;10.602;2023-07-24T05:58:01;18.30;75.60
975;DHT22;6115;49.296;10.602;2023-07-24T06:03:01;18.40;75.80
975;DHT22;6115;49.296;10.602;2023-07-24T06:08:02;18.60;74.80
975;DHT22;6115;49.296;10.602;2023-07-24T06:13:03;18.70;74.40
975;DHT22;6115;49.296;10.602;2023-07-24T06:18:03;18.80;74.70
975;DHT22;6115;49.296;10.602;2023-07-24T06:23:04;18.90;72.10
975;DHT22;6115;49.296;10.602;2023-07-24T06:28:04;18.90;70.30
975;DHT22;6115;49.296;10.602;2023-07-24T06:33:05;19.00;71.10
975;DHT22;6115;49.296;10.602;2023-07-24T06:38:05;19.20;71.80
975;DHT22;6115;49.296;10.602;2023-07-24T06:43:08;19.40;70.00
975;DHT22;6115;49.296;10.602;2023-07-24T06:48:09;19.60;70.70
975;DHT22;6115;49.296;10.602;2023-07-24T06:53:09;20.00;69.10
975;DHT22;6115;49.296;10.602;2023-07-24T06:58:10;20.20;69.30
975;DHT22;6115;49.296;10.602;2023-07-24T07:03:10;20.50;67.20
975;DHT22;6115;49.296;10.602;2023-07-24T07:08:11;20.70;67.50
975;DHT22;6115;49.296;10.602;2023-07-24T07:13:11;20.80;66.40
975;DHT22;6115;49.296;10.602;2023-07-24T07:18:12;20.80;65.50
975;DHT22;6115;49.296;10.602;2023-07-24T07:23:12;20.80;64.10
975;DHT22;6115;49.296;10.602;2023-07-24T07:28:14;20.70;63.90
975;DHT22;6115;49.296;10.602;2023-07-24T07:33:14;20.60;64.20
975;DHT22;6115;49.296;10.602;2023-07-24T07:38:15;20.70;64.80
975;DHT22;6115;49.296;10.602;2023-07-24T07:43:16;20.80;64.10
975;DHT22;6115;49.296;10.602;2023-07-24T07:48:16;20.90;64.90
975;DHT22;6115;49.296;10.602;2023-07-24T07:53:17;20.90;65.00
975;DHT22;6115;49.296;10.602;2023-07-24T07:58:17;21.00;64.40
975;DHT22;6115;49.296;10.602;2023-07-24T08:03:18;21.10;64.80
975;DHT22;6115;49.296;10.602;2023-07-24T08:08:18;21.30;65.00
975;DHT22;6115;49.296;10.602;2023-07-24T08:13:19;21.50;64.20
975;DHT22;6115;49.296;10.602;2023-07-24T08:18:19;21.50;63.40
975;DHT22;6115;49.296;10.602;2023-07-24T08:23:20;21.60;62.60
975;DHT22;6115;49.296;10.602;2023-07-24T08:28:21;21.90;62.80
975;DHT22;6115;49.296;10.602;2023-07-24T08:33:21;22.00;62.50
975;DHT22;6115;49.296;10.602;2023-07-24T08:38:22;22.10;61.00
975;DHT22;6115;49.296;10.602;2023-07-24T08:43:24;22.30;60.20
975;DHT22;6115;49.296;10.602;2023-07-24T08:48:33;22.50;59.70
975;DHT22;6115;49.296;10.602;2023-07-24T08:53:37;22.70;59.00
975;DHT22;6115;49.296;10.602;2023-07-24T08:58:38;22.90;59.80
975;DHT22;6115;49.296;10.602;2023-07-24T09:03:42;23.00;58.30
975;DHT22;6115;49.296;10.602;2023-07-24T09:08:43;23.10;57.20
975;DHT22;6115;49.296;10.602;2023-07-24T09:13:44;23.40;57.10
975;DHT22;6115;49.296;10.602;2023-07-24T09:18:44;23.70;56.20
975;DHT22;6115;49.296;10.602;2023-07-24T09:23:45;24.00;54.50
975;DHT22;6115;49.296;10.602;2023-07-24T09:28:53;24.30;53.30
975;DHT22;6115;49.296;10.602;2023-07-24T09:33:53;24.70;52.70
975;DHT22;6115;49.296;10.602;2023-07-24T09:39:00;24.80;52.40
975;DHT22;6115;49.296;10.602;2023-07-24T09:44:00;25.10;49.80
975;DHT22;6115;49.296;10.602;2023-07-24T09:49:01;24.80;50.20
975;DHT22;6115;49.296;10.602;2023-07-24T09:54:12;24.70;49.60
975;DHT22;6115;49.296;10.602;2023-07-24T09:59:14;24.60;49.70
975;DHT22;6115;49.296;10.602;2023-07-24T10:04:15;24.40;50.10
975;DHT22;6115;49.296;10.602;2023-07-24T10:09:16;24.30;50.40
975;DHT22;6115;49.296;10.602;2023-07-24T10:14:19;24.20;52.00
975;DHT22;6115;49.296;10.602;2023-07-24T10:19:20;24.10;52.70
975;DHT22;6115;49.296;10.602;2023-07-24T10:24:29;23.90;53.40
975;DHT22;6115;49.296;10.602;2023-07-24T10:29:34;23.80;53.30
975;DHT22;6115;49.296;10.602;2023-07-24T10:34:38;23.90;53.50
975;DHT22;6115;49.296;10.602;2023-07-24T10:39:40;23.90;53.40
975;DHT22;6115;49.296;10.602;2023-07-24T10:44:40;23.80;53.30
975;DHT22;6115;49.296;10.602;2023-07-24T10:49:49;23.70;53.50
975;DHT22;6115;49.296;10.602;2023-07-24T10:54:50;23.70;53.70
975;DHT22;6115;49.296;10.602;2023-07-24T10:59:52;23.60;53.10
975;DHT22;6115;49.296;10.602;2023-07-24T11:04:52;23.60;53.10
975;DHT22;6115;49.296;10.602;2023-07-24T11:09:53;23.70;53.20
975;DHT22;6115;49.296;10.602;2023-07-24T11:14:53;23.60;52.80
975;DHT22;6115;49.296;10.602;2023-07-24T11:20:11;23.40;52.90
975;DHT22;6115;49.296;10.602;2023-07-24T11:25:12;23.40;52.90
975;DHT22;6115;49.296;10.602;2023-07-24T11:30:12;23.30;52.80
975;DHT22;6115;49.296;10.602;2023-07-24T11:35:19;23.40;52.90
975;DHT22;6115;49.296;10.602;2023-07-24T11:40:34;23.30;51.90
975;DHT22;6115;49.296;10.602;2023-07-24T11:45:42;23.20;52.20
975;DHT22;6115;49.296;10.602;2023-07-24T11:50:46;23.10;52.10
975;DHT22;6115;49.296;10.602;2023-07-24T11:55:47;23.00;52.60
975;DHT22;6115;49.296;10.602;2023-07-24T12:00:49;23.00;53.50
975;DHT22;6115;49.296;10.602;2023-07-24T12:05:50;22.90;53.70
975;DHT22;6115;49.296;10.602;2023-07-24T12:10:51;22.90;52.50
975;DHT22;6115;49.296;10.602;2023-07-24T12:15:51;22.90;52.60
975;DHT22;6115;49.296;10.602;2023-07-24T12:20:52;22.90;52.50
975;DHT22;6115;49.296;10.602;2023-07-24T12:25:52;22.90;53.30
975;DHT22;6115;49.296;10.602;2023-07-24T12:30:53;22.80;53.80
975;DHT22;6115;49.296;10.602;2023-07-24T12:35:53;22.60;55.00
975;DHT22;6115;49.296;10.602;2023-07-24T12:40:54;22.40;55.80
975;DHT22;6115;49.296;10.602;2023-07-24T12:46:01;22.40;55.60
975;DHT22;6115;49.296;10.602;2023-07-24T12:51:03;22.60;55.80
975;DHT22;6115;49.296;10.602;2023-07-24T12:56:03;22.80;54.50
975;DHT22;6115;49.296;10.602;2023-07-24T13:01:04;22.80;55.70
975;DHT22;6115;49.296;10.602;2023-07-24T13:06:04;22.90;54.40
975;DHT22;6115;49.296;10.602;2023-07-24T13:11:05;23.10;54.60
975;DHT22;6115;49.296;10.602;2023-07-24T13:16:05;23.50;53.00
975;DHT22;6115;49.296;10.602;2023-07-24T13:21:06;23.50;53.70
975;DHT22;6115;49.296;10.602;2023-07-24T13:26:08;23.40;52.90
975;DHT22;6115;49.296;10.602;2023-07-24T13:31:15;23.20;53.10
975;DHT22;6115;49.296;10.602;2023-07-24T13:36:16;23.00;52.60
975;DHT22;6115;49.296;10.602;2023-07-24T13:41:16;22.80;53.90
975;DHT22;6115;49.296;10.602;2023-07-24T13:46:17;22.90;56.30
975;DHT22;6115;49.296;10.602;2023-07-24T13:51:18;22.80;56.50
975;DHT22;6115;49.296;10.602;2023-07-24T13:56:18;22.70;56.40
975;DHT22;6115;49.296;10.602;2023-07-24T14:01:19;22.50;56.30
975;DHT22;6115;49.296;10.602;2023-07-24T14:06:20;22.40;55.40
975;DHT22;6115;49.296;10.602;2023-07-24T14:11:21;22.50;56.70
975;DHT22;6115;49.296;10.602;2023-07-24T14:16:22;22.50;54.70
975;DHT22;6115;49.296;10.602;2023-07-24T14:21:22;22.40;53.90
975;DHT22;6115;49.296;10.602;2023-07-24T14:26:23;22.50;53.70
975;DHT22;6115;49.296;10.602;2023-07-24T14:31:24;22.50;52.20
975;DHT22;6115;49.296;10.602;2023-07-24T14:36:25;22.50;52.20
975;DHT22;6115;49.296;10.602;2023-07-24T14:41:28;22.50;50.90
975;DHT22;6115;49.296;10.602;2023-07-24T14:46:28;22.60;51.00
975;DHT22;6115;49.296;10.602;2023-07-24T14:51:29;22.70;50.70
975;DHT22;6115;49.296;10.602;2023-07-24T14:56:29;22.60;50.60
975;DHT22;6115;49.296;10.602;2023-07-24T15:01:30;22.50;50.80
975;DHT22;6115;49.296;10.602;2023-07-24T15:06:31;22.40;51.80
975;DHT22;6115;49.296;10.602;2023-07-24T15:11:31;22.50;52.20
975;DHT22;6115;49.296;10.602;2023-07-24T15:16:32;22.50;52.20
975;DHT22;6115;49.296;10.602;2023-07-24T15:21:32;22.50;52.20
975;DHT22;6115;49.296;10.602;2023-07-24T15:26:33;22.50;52.20
975;DHT22;6115;49.296;10.602;2023-07-24T15:31:33;22.70;52.40
975;DHT22;6115;49.296;10.602;2023-07-24T15:36:37;22.90;52.50
975;DHT22;6115;49.296;10.602;2023-07-24T15:41:37;23.00;51.70
975;DHT22;6115;49.296;10.602;2023-07-24T15:46:38;23.00;52.10
975;DHT22;6115;49.296;10.602;2023-07-24T15:51:38;23.00;52.30
975;DHT22;6115;49.296;10.602;2023-07-24T15:56:39;23.10;52.50
975;DHT22;6115;49.296;10.602;2023-07-24T16:01:40;23.20;52.20
975;DHT22;6115;49.296;10.602;2023-07-24T16:06:40;23.20;52.00
975;DHT22;6115;49.296;10.602;2023-07-24T16:11:41;23.20;52.10
975;DHT22;6115;49.296;10.602;2023-07-24T16:16:41;23.30;52.80
975;DHT22;6115;49.296;10.602;2023-07-24T16:21:43;23.30;52.40
975;DHT22;6115;49.296;10.602;2023-07-24T16:26:44;23.40;51.70
975;DHT22;6115;49.296;10.602;2023-07-24T16:31:45;23.50;51.50
975;DHT22;6115;49.296;10.602;2023-07-24T16:36:45;23.80;50.40
975;DHT22;6115;49.296;10.602;2023-07-24T16:41:46;23.90;50.00
975;DHT22;6115;49.296;10.602;2023-07-24T16:46:46;24.10;50.00
975;DHT22;6115;49.296;10.602;2023-07-24T16:51:47;24.10;49.70
975;DHT22;6115;49.296;10.602;2023-07-24T16:56:47;24.00;51.10
975;DHT22;6115;49.296;10.602;2023-07-24T17:01:49;23.90;51.70
975;DHT22;6115;49.296;10.602;2023-07-24T17:06:50;23.90;52.00
975;DHT22;6115;49.296;10.602;2023-07-24T17:11:51;23.80;52.00
975;DHT22;6115;49.296;10.602;2023-07-24T17:16:51;23.80;50.80
975;DHT22;6115;49.296;10.602;2023-07-24T17:21:52;23.70;50.50
975;DHT22;6115;49.296;10.602;2023-07-24T17:26:52;23.50;51.50
975;DHT22;6115;49.296;10.602;2023-07-24T17:31:53;23.30;51.30
975;DHT22;6115;49.296;10.602;2023-07-24T17:36:54;23.20;51.40
975;DHT22;6115;49.296;10.602;2023-07-24T17:41:55;23.10;51.00
975;DHT22;6115;49.296;10.602;2023-07-24T17:46:55;23.00;51.10
975;DHT22;6115;49.296;10.602;2023-07-24T17:51:56;23.10;52.10
975;DHT22;6115;49.296;10.602;2023-07-24T17:56:56;23.00;52.10
975;DHT22;6115;49.296;10.602;2023-07-24T18:01:58;23.00;52.60
975;DHT22;6115;49.296;10.602;2023-07-24T18:06:59;23.20;52.80
975;DHT22;6115;49.296;10.602;2023-07-24T18:12:00;23.20;51.90
975;DHT22;6115;49.296;10.602;2023-07-24T18:17:01;23.10;52.40
975;DHT22;6115;49.296;10.602;2023-07-24T18:22:01;23.00;52.60
975;DHT22;6115;49.296;10.602;2023-07-24T18:27:02;22.80;53.20
975;DHT22;6115;49.296;10.602;2023-07-24T18:32:03;22.60;54.50
975;DHT22;6115;49.296;10.602;2023-07-24T18:37:03;22.30;55.80
975;DHT22;6115;49.296;10.602;2023-07-24T18:42:04;22.00;57.70
975;DHT22;6115;49.296;10.602;2023-07-24T18:47:05;21.60;60.50
975;DHT22;6115;49.296;10.602;2023-07-24T18:52:06;21.40;61.40
975;DHT22;6115;49.296;10.602;2023-07-24T18:57:06;21.40;61.90
975;DHT22;6115;49.296;10.602;2023-07-24T19:02:07;21.20;62.00
975;DHT22;6115;49.296;10.602;2023-07-24T19:07:08;21.10;62.10
975;DHT22;6115;49.296;10.602;2023-07-24T19:12:08;20.90;59.80
975;DHT22;6115;49.296;10.602;2023-07-24T19:17:09;20.80;59.80
975;DHT22;6115;49.296;10.602;2023-07-24T19:22:10;20.80;59.70
975;DHT22;6115;49.296;10.602;2023-07-24T19:27:11;20.60;59.50
975;DHT22;6115;49.296;10.602;2023-07-24T19:32:11;20.50;59.50
975;DHT22;6115;49.296;10.602;2023-07-24T19:37:12;20.50;59.50
975;DHT22;6115;49.296;10.602;2023-07-24T19:42:12;20.30;59.30
975;DHT22;6115;49.296;10.602;2023-07-24T19:47:13;20.20;59.20
975;DHT22;6115;49.296;10.602;2023-07-24T19:52:13;20.10;59.50
975;DHT22;6115;49.296;10.602;2023-07-24T19:57:14;20.00;60.20
975;DHT22;6115;49.296;10.602;2023-07-24T20:02:14;19.90;60.60
975;DHT22;6115;49.296;10.602;2023-07-24T20:07:15;19.80;61.00
975;DHT22;6115;49.296;10.602;2023-07-24T20:12:18;19.70;61.20
975;DHT22;6115;49.296;10.602;2023-07-24T20:17:18;19.60;62.70
975;DHT22;6115;49.296;10.602;2023-07-24T20:22:19;19.50;62.50
975;DHT22;6115;49.296;10.602;2023-07-24T20:27:19;19.40;63.50
975;DHT22;6115;49.296;10.602;2023-07-24T20:32:20;19.20;63.70
975;DHT22;6115;49.296;10.602;2023-07-24T20:37:20;19.20;64.30
975;DHT22;6115;49.296;10.602;2023-07-24T20:42:21;19.10;64.60
975;DHT22;6115;49.296;10.602;2023-07-24T20:47:22;19.10;65.30
975;DHT22;6115;49.296;10.602;2023-07-24T20:52:23;19.00;65.40
975;DHT22;6115;49.296;10.602;2023-07-24T20:57:24;19.00;65.50
975;DHT22;6115;49.296;10.602;2023-07-24T21:02:24;18.90;65.90
975;DHT22;6115;49.296;10.602;2023-07-24T21:07:25;18.90;66.10
975;DHT22;6115;49.296;10.602;2023-07-24T21:12:25;18.90;66.60
975;DHT22;6115;49.296;10.602;2023-07-24T21:17:26;18.90;66.60
975;DHT22;6115;49.296;10.602;2023-07-24T21:22:26;18.80;66.30
975;DHT22;6115;49.296;10.602;2023-07-24T21:27:27;18.80;66.20
975;DHT22;6115;49.296;10.602;2023-07-24T21:32:27;18.80;66.50
975;DHT22;6115;49.296;10.602;2023-07-24T21:37:28;18.70;67.00
975;DHT22;6115;49.296;10.602;2023-07-24T21:42:28;18.60;67.10
975;DHT22;6115;49.296;10.602;2023-07-24T21:47:29;18.60;67.00
975;DHT22;6115;49.296;10.602;2023-07-24T21:52:29;18.60;67.00
975;DHT22;6115;49.296;10.602;2023-07-24T21:57:30;18.60;67.40
975;DHT22;6115;49.296;10.602;2023-07-24T22:02:31;18.40;67.50
975;DHT22;6115;49.296;10.602;2023-07-24T22:07:31;18.40;67.50
975;DHT22;6115;49.296;10.602;2023-07-24T22:12:32;18.30;68.10
975;DHT22;6115;49.296;10.602;2023-07-24T22:17:33;18.30;68.00
975;DHT22;6115;49.296;10.602;2023-07-24T22:22:34;18.30;68.10
975;DHT22;6115;49.296;10.602;2023-07-24T22:27:34;18.20;67.70
975;DHT22;6115;49.296;10.602;2023-07-24T22:32:35;18.20;67.70
975;DHT22;6115;49.296;10.602;2023-07-24T22:37:36;18.10;67.90
975;DHT22;6115;49.296;10.602;2023-07-24T22:42:36;18.00;68.30
975;DHT22;6115;49.296;10.602;2023-07-24T22:47:37;17.90;68.40
975;DHT22;6115;49.296;10.602;2023-07-24T22:52:37;17.80;69.80
975;DHT22;6115;49.296;10.602;2023-07-24T22:57:38;17.60;70.50
975;DHT22;6115;49.296;10.602;2023-07-24T23:02:38;17.60;70.70
975;DHT22;6115;49.296;10.602;2023-07-24T23:07:39;17.50;71.00
975;DHT22;6115;49.296;10.602;2023-07-24T23:12:39;17.50;71.40
975;DHT22;6115;49.296;10.602;2023-07-24T23:17:40;17.40;71.60
975;DHT22;6115;49.296;10.602;2023-07-24T23:22:40;17.40;71.60
975;DHT22;6115;49.296;10.602;2023-07-24T23:27:41;17.30;71.50
975;DHT22;6115;49.296;10.602;2023-07-24T23:32:41;17.30;71.50
975;DHT22;6115;49.296;10.602;2023-07-24T23:37:42;17.30;71.50
975;DHT22;6115;49.296;10.602;2023-07-24T23:42:42;17.30;71.50
975;DHT22;6115;49.296;10.602;2023-07-24T23:47:43;17.30;71.50
975;DHT22;6115;49.296;10.602;2023-07-24T23:52:43;17.20;71.40
975;DHT22;6115;49.296;10.602;2023-07-24T23:57:44;17.30;71.50
